createdAt,value
2019-05-01T00:01:51.596Z,16.20
2019-05-01T00:04:23.100Z,15.35
2019-05-01T00:06:56.526Z,12.07
2019-05-01T00:09:26.518Z,17.42
2019-05-01T00:11:56.405Z,12.78
2019-05-01T00:14:28.264Z,12.93
2019-05-01T00:16:58.067Z,12.07
2019-05-01T00:19:27.700Z,15.35
2019-05-01T00:21:57.462Z,13.62
2019-05-01T00:24:27.223Z,18.67
2019-05-01T00:26:56.906Z,16.50
2019-05-01T00:29:26.729Z,14.07
2019-05-01T00:31:56.573Z,17.12
2019-05-01T00:34:26.339Z,15.23
2019-05-01T00:36:56.277Z,19.40
2019-05-01T00:39:26.126Z,19.07
2019-05-01T00:41:55.888Z,14.47
2019-05-01T00:44:25.741Z,14.18
2019-05-01T00:46:55.588Z,16.77
2019-05-01T00:49:25.383Z,16.50
2019-05-01T00:51:55.194Z,21.23
2019-05-01T00:54:25.232Z,19.20
2019-05-01T00:56:56.687Z,16.90
2019-05-01T00:59:27.947Z,17.98
2019-05-01T01:01:59.308Z,18.57
2019-05-01T01:04:29.121Z,14.95
2019-05-01T01:06:58.836Z,19.27
2019-05-01T01:09:28.723Z,14.98
2019-05-01T01:11:58.571Z,12.68
2019-05-01T01:14:28.371Z,13.83
2019-05-01T01:16:58.095Z,13.98
2019-05-01T01:19:27.823Z,18.52
2019-05-01T01:21:57.872Z,19.57
2019-05-01T01:24:27.799Z,19.42
2019-05-01T01:26:57.766Z,24.30
2019-05-01T01:29:27.611Z,19.90
2019-05-01T01:31:57.335Z,24.25
2019-05-01T01:34:27.182Z,24.10
2019-05-01T01:36:57.155Z,24.98
2019-05-01T01:39:26.975Z,22.30
2019-05-01T01:41:56.898Z,28.15
2019-05-01T01:44:28.260Z,22.10
2019-05-01T01:46:59.895Z,24.47
2019-05-01T01:49:29.817Z,26.65
2019-05-01T01:51:59.869Z,28.70
2019-05-01T01:54:29.960Z,19.73
2019-05-01T01:56:59.927Z,20.88
2019-05-01T01:59:30.080Z,19.48
2019-05-01T02:02:01.521Z,23.05
2019-05-01T02:04:34.487Z,20.17
2019-05-01T02:07:04.438Z,25.30
2019-05-01T02:09:34.377Z,23.42
2019-05-01T02:12:04.498Z,22.10
2019-05-01T02:14:34.477Z,18.90
2019-05-01T02:17:04.351Z,18.10
2019-05-01T02:19:34.243Z,18.70
2019-05-01T02:22:04.260Z,17.37
2019-05-01T02:24:34.110Z,25.20
2019-05-01T02:27:05.619Z,34.23
2019-05-01T02:29:37.387Z,29.48
2019-05-01T02:32:07.939Z,27.87
2019-05-01T02:34:38.980Z,30.97
2019-05-01T02:37:11.367Z,22.20
2019-05-01T02:39:42.907Z,24.43
2019-05-01T02:42:15.007Z,23.85
2019-05-01T02:44:47.716Z,24.67
2019-05-01T02:47:20.424Z,27.00
2019-05-01T02:49:53.396Z,32.85
2019-05-01T02:52:26.311Z,22.55
2019-05-01T02:54:58.497Z,15.70
2019-05-01T02:59:58.491Z,21.23
2019-05-01T03:02:29.238Z,20.32
2019-05-01T03:05:00.543Z,28.70
2019-05-01T03:07:33.221Z,19.87
2019-05-01T03:10:08.916Z,28.80
2019-05-01T03:12:39.430Z,29.12
2019-05-01T03:15:11.061Z,20.02
2019-05-01T03:17:44.033Z,25.55
2019-05-01T03:20:16.911Z,25.23
2019-05-01T03:22:48.639Z,20.37
2019-05-01T03:25:19.415Z,29.60
2019-05-01T03:27:49.331Z,28.57
2019-05-01T03:30:19.174Z,33.00
2019-05-01T03:32:49.044Z,24.95
2019-05-01T03:35:19.115Z,36.90
2019-05-01T03:37:49.014Z,27.62
2019-05-01T03:40:19.149Z,31.42
2019-05-01T03:42:49.086Z,27.22
2019-05-01T03:45:19.400Z,28.92
2019-05-01T03:47:49.379Z,22.62
2019-05-01T03:50:19.525Z,28.52
2019-05-01T03:52:50.119Z,31.50
2019-05-01T03:55:20.036Z,31.73
2019-05-01T03:57:50.027Z,32.05
2019-05-01T04:00:22.473Z,44.33
2019-05-01T04:02:54.049Z,38.85
2019-05-01T04:05:24.093Z,57.50
2019-05-01T04:07:53.984Z,57.03
2019-05-01T04:10:23.853Z,47.62
2019-05-01T04:12:53.915Z,50.50
2019-05-01T04:15:23.962Z,29.23
2019-05-01T04:17:55.611Z,33.58
2019-05-01T04:20:25.488Z,39.18
2019-05-01T04:22:55.471Z,29.72
2019-05-01T04:25:26.553Z,35.25
2019-05-01T04:27:58.792Z,34.88
2019-05-01T04:30:32.613Z,33.63
2019-05-01T04:33:04.274Z,39.53
2019-05-01T04:35:36.468Z,29.90
2019-05-01T04:40:35.677Z,27.60
2019-05-01T04:43:05.698Z,32.50
2019-05-01T04:45:35.569Z,37.83
2019-05-01T04:48:05.543Z,37.28
2019-05-01T04:50:35.874Z,32.65
2019-05-01T04:53:06.447Z,27.82
2019-05-01T04:55:36.395Z,23.87
2019-05-01T04:58:06.394Z,22.82
2019-05-01T05:00:36.647Z,22.62
2019-05-01T05:03:08.144Z,17.80
2019-05-01T05:05:38.423Z,19.12
2019-05-01T05:08:08.506Z,19.95
2019-05-01T05:10:38.814Z,20.23
2019-05-01T05:13:10.503Z,13.35
2019-05-01T05:15:42.494Z,19.73
2019-05-01T05:18:13.030Z,15.88
2019-05-01T05:20:43.064Z,21.27
2019-05-01T05:23:13.038Z,16.93
2019-05-01T05:25:43.303Z,19.20
2019-05-01T05:28:13.830Z,17.90
2019-05-01T05:30:45.190Z,21.33
2019-05-01T05:33:18.895Z,21.75
2019-05-01T05:35:50.474Z,19.75
2019-05-01T05:38:24.404Z,16.57
2019-05-01T05:40:55.164Z,16.73
2019-05-01T05:43:25.050Z,15.28
2019-05-01T05:45:55.326Z,19.37
2019-05-01T05:48:25.217Z,17.60
2019-05-01T05:50:58.871Z,14.15
2019-05-01T05:53:32.839Z,21.33
2019-05-01T05:56:07.140Z,20.68
2019-05-01T05:58:41.066Z,18.48
2019-05-01T06:01:14.223Z,18.70
2019-05-01T06:03:48.516Z,26.82
2019-05-01T06:06:23.201Z,25.40
2019-05-01T06:08:54.538Z,22.17
2019-05-01T06:11:29.670Z,27.52
2019-05-01T06:14:02.896Z,27.37
2019-05-01T06:16:35.384Z,27.22
2019-05-01T06:21:56.343Z,35.68
2019-05-01T06:24:28.070Z,24.47
2019-05-01T06:26:58.423Z,32.13
2019-05-01T06:29:31.049Z,23.42
2019-05-01T06:32:00.272Z,24.75
2019-05-01T06:34:30.257Z,21.90
2019-05-01T06:37:00.127Z,23.10
2019-05-01T06:39:30.016Z,24.35
2019-05-01T06:41:59.975Z,27.25
2019-05-01T06:44:33.513Z,19.45
2019-05-01T06:47:05.196Z,20.25
2019-05-01T06:49:37.849Z,14.47
2019-05-01T06:52:09.703Z,15.72
2019-05-01T06:54:40.104Z,22.77
2019-05-01T06:57:10.478Z,19.12
2019-05-01T06:59:41.638Z,11.57
2019-05-01T07:02:16.099Z,13.43
2019-05-01T07:04:48.309Z,13.70
2019-05-01T07:07:24.932Z,17.23
2019-05-01T07:09:53.564Z,12.53
2019-05-01T07:12:28.317Z,14.45
2019-05-01T07:14:57.024Z,12.82
2019-05-01T07:17:26.827Z,12.33
2019-05-01T07:19:58.814Z,16.55
2019-05-01T07:22:28.693Z,15.03
2019-05-01T07:25:03.390Z,17.37
2019-05-01T07:27:30.528Z,14.40
2019-05-01T07:30:01.966Z,18.73
2019-05-01T07:32:31.929Z,17.20
2019-05-01T07:35:03.803Z,9.10
2019-05-01T07:37:33.539Z,13.00
2019-05-01T07:40:04.955Z,13.40
2019-05-01T07:42:36.399Z,14.00
2019-05-01T07:45:10.068Z,15.10
2019-05-01T07:47:42.624Z,11.18
2019-05-01T07:50:15.077Z,15.15
2019-05-01T07:52:47.783Z,14.60
2019-05-01T07:55:20.088Z,12.45
2019-05-01T07:57:50.421Z,12.20
2019-05-01T08:00:24.721Z,17.17
2019-05-01T08:02:54.667Z,14.47
2019-05-01T08:05:24.751Z,12.37
2019-05-01T08:07:54.458Z,10.32
2019-05-01T08:10:25.860Z,9.63
2019-05-01T08:13:00.423Z,15.48
2019-05-01T08:15:30.393Z,15.25
2019-05-01T08:18:00.039Z,21.60
2019-05-01T08:20:31.521Z,17.87
2019-05-01T08:23:01.258Z,15.30
2019-05-01T08:25:33.250Z,16.67
2019-05-01T08:28:04.223Z,18.37
2019-05-01T08:30:35.813Z,14.68
2019-05-01T08:33:09.898Z,21.48
2019-05-01T08:35:39.088Z,18.75
2019-05-01T08:38:08.962Z,20.50
2019-05-01T08:40:38.803Z,16.30
2019-05-01T08:43:08.514Z,11.95
2019-05-01T08:45:40.613Z,11.70
2019-05-01T08:48:13.081Z,12.20
2019-05-01T08:50:42.985Z,12.03
2019-05-01T08:53:12.708Z,15.32
2019-05-01T08:55:45.042Z,12.20
2019-05-01T08:58:15.842Z,17.57
2019-05-01T09:00:45.755Z,15.75
2019-05-01T09:03:18.698Z,11.20
2019-05-01T09:05:47.175Z,15.88
2019-05-01T09:08:17.423Z,11.78
2019-05-01T09:10:49.475Z,13.20
2019-05-01T09:13:23.172Z,12.88
2019-05-01T09:15:50.148Z,15.15
2019-05-01T09:18:20.011Z,9.90
2019-05-01T09:20:51.325Z,10.70
2019-05-01T09:23:21.219Z,7.60
2019-05-01T09:25:52.628Z,12.58
2019-05-01T09:28:23.988Z,10.40
2019-05-01T09:31:01.330Z,9.75
2019-05-01T09:33:30.796Z,11.40
2019-05-01T09:35:58.560Z,9.35
2019-05-01T09:38:28.463Z,10.40
2019-05-01T09:40:58.373Z,13.45
2019-05-01T09:43:30.918Z,12.60
2019-05-01T09:45:59.739Z,12.78
2019-05-01T09:48:29.711Z,11.22
2019-05-01T09:51:05.410Z,8.53
2019-05-01T09:53:35.448Z,8.83
2019-05-01T09:56:07.639Z,8.05
2019-05-01T09:58:38.716Z,6.45
2019-05-01T10:01:08.630Z,7.22
2019-05-01T10:03:38.527Z,6.72
2019-05-01T10:06:08.475Z,7.65
2019-05-01T10:08:39.906Z,3.75
2019-05-01T10:11:10.947Z,11.15
2019-05-01T10:13:40.710Z,8.20
2019-05-01T10:16:10.624Z,10.70
2019-05-01T10:18:40.564Z,6.60
2019-05-01T10:21:10.455Z,7.87
2019-05-01T10:23:40.381Z,5.65
2019-05-01T10:26:11.593Z,5.25
2019-05-01T10:28:45.202Z,7.15
2019-05-01T10:31:16.077Z,5.03
2019-05-01T10:33:47.588Z,11.40
2019-05-01T10:36:20.688Z,5.75
2019-05-01T10:38:50.715Z,6.53
2019-05-01T10:41:20.511Z,5.90
2019-05-01T10:43:50.223Z,13.25
2019-05-01T10:46:21.120Z,9.00
2019-05-01T10:48:51.035Z,8.00
2019-05-01T10:51:20.850Z,9.55
2019-05-01T10:53:50.684Z,12.75
2019-05-01T10:56:20.515Z,7.60
2019-05-01T10:58:50.451Z,12.98
2019-05-01T11:01:21.890Z,6.22
2019-05-01T11:03:51.675Z,7.03
2019-05-01T11:06:21.595Z,14.23
2019-05-01T11:08:51.309Z,10.18
2019-05-01T11:11:21.161Z,10.28
2019-05-01T11:13:50.825Z,7.37
2019-05-01T11:16:20.807Z,7.87
2019-05-01T11:18:50.946Z,9.03
2019-05-01T11:21:20.791Z,10.08
2019-05-01T11:23:50.619Z,10.60
2019-05-01T11:26:20.490Z,13.18
2019-05-01T11:28:50.450Z,12.18
2019-05-01T11:31:21.918Z,8.10
2019-05-01T11:33:53.278Z,11.08
2019-05-01T11:36:24.839Z,16.90
2019-05-01T11:38:56.312Z,10.13
2019-05-01T11:41:27.767Z,10.18
2019-05-01T11:43:57.480Z,8.05
2019-05-01T11:46:27.922Z,7.58
2019-05-01T11:48:57.562Z,10.53
2019-05-01T11:51:27.368Z,13.83
2019-05-01T11:53:57.174Z,11.75
2019-05-01T11:56:27.038Z,11.03
2019-05-01T11:58:56.860Z,11.08
2019-05-01T12:01:27.264Z,10.82
2019-05-01T12:03:57.168Z,17.07
2019-05-01T12:06:27.291Z,11.20
2019-05-01T12:08:56.957Z,13.08
2019-05-01T12:11:28.424Z,11.50
2019-05-01T12:13:58.198Z,13.38
2019-05-01T12:16:29.689Z,9.85
2019-05-01T12:18:59.595Z,14.07
2019-05-01T12:21:29.425Z,13.68
2019-05-01T12:23:59.352Z,11.43
2019-05-01T12:26:29.196Z,13.35
2019-05-01T12:28:58.905Z,8.48
2019-05-01T12:31:31.167Z,12.80
2019-05-01T12:34:00.055Z,12.43
2019-05-01T12:36:36.400Z,14.68
2019-05-01T12:39:01.375Z,13.50
2019-05-01T12:41:34.231Z,12.78
2019-05-01T12:44:03.974Z,14.43
2019-05-01T12:46:35.377Z,8.98
2019-05-01T12:49:05.611Z,16.60
2019-05-01T12:51:36.351Z,10.48
2019-05-01T12:54:11.206Z,9.70
2019-05-01T12:56:42.687Z,9.50
2019-05-01T12:59:12.489Z,9.25
2019-05-01T13:01:42.316Z,15.83
2019-05-01T13:04:12.117Z,10.05
2019-05-01T13:06:49.249Z,11.30
2019-05-01T13:09:13.360Z,14.83
2019-05-01T13:11:43.012Z,15.32
2019-05-01T13:14:12.751Z,12.70
2019-05-01T13:16:42.599Z,11.05
2019-05-01T13:19:12.376Z,10.13
2019-05-01T13:21:42.087Z,11.22
2019-05-01T13:24:11.993Z,12.80
2019-05-01T13:26:43.272Z,13.95
2019-05-01T13:29:14.693Z,14.03
2019-05-01T13:31:46.174Z,11.18
2019-05-01T13:34:16.141Z,11.43
2019-05-01T13:36:46.120Z,11.35
2019-05-01T13:39:16.372Z,13.62
2019-05-01T13:41:46.297Z,10.18
2019-05-01T13:44:16.074Z,13.32
2019-05-01T13:46:45.867Z,18.55
2019-05-01T13:49:15.785Z,12.18
2019-05-01T13:51:45.624Z,12.70
2019-05-01T13:54:15.426Z,13.38
2019-05-01T13:56:45.139Z,14.65
2019-05-01T13:59:16.266Z,10.38
2019-05-01T14:01:46.138Z,12.28
2019-05-01T14:04:16.831Z,13.25
2019-05-01T14:06:46.595Z,10.18
2019-05-01T14:09:18.232Z,8.63
2019-05-01T14:11:47.989Z,15.40
2019-05-01T14:14:17.792Z,14.75
2019-05-01T14:16:47.639Z,11.90
2019-05-01T14:19:17.355Z,14.68
2019-05-01T14:21:48.710Z,11.70
2019-05-01T14:24:19.986Z,18.65
2019-05-01T14:26:49.883Z,15.28
2019-05-01T14:29:19.586Z,14.13
2019-05-01T14:31:49.419Z,14.30
2019-05-01T14:34:19.190Z,13.70
2019-05-01T14:36:49.094Z,18.87
2019-05-01T14:39:18.936Z,16.30
2019-05-01T14:41:48.751Z,12.68
2019-05-01T14:44:18.620Z,13.32
2019-05-01T14:46:48.372Z,16.45
2019-05-01T14:49:18.288Z,9.93
2019-05-01T14:51:48.176Z,20.92
2019-05-01T14:54:18.093Z,12.35
2019-05-01T14:56:47.899Z,13.88
2019-05-01T14:59:17.732Z,16.00
2019-05-01T15:01:47.476Z,11.38
2019-05-01T15:04:17.284Z,14.28
2019-05-01T15:06:47.199Z,14.80
2019-05-01T15:09:16.821Z,18.98
2019-05-01T15:11:46.892Z,14.10
2019-05-01T15:14:18.204Z,20.52
2019-05-01T15:16:49.882Z,19.73
2019-05-01T15:19:21.492Z,10.70
2019-05-01T15:21:51.295Z,9.35
2019-05-01T15:24:21.224Z,11.68
2019-05-01T15:26:51.083Z,12.78
2019-05-01T15:29:21.061Z,15.08
2019-05-01T15:31:50.743Z,20.77
2019-05-01T15:34:20.694Z,13.58
2019-05-01T15:36:50.335Z,12.18
2019-05-01T15:39:21.794Z,14.05
2019-05-01T15:41:53.204Z,11.93
2019-05-01T15:44:24.560Z,20.82
2019-05-01T15:46:54.463Z,11.78
2019-05-01T15:49:24.243Z,14.23
2019-05-01T15:51:54.009Z,20.45
2019-05-01T15:54:23.863Z,13.78
2019-05-01T15:56:53.774Z,14.85
2019-05-01T15:59:23.482Z,12.37
2019-05-01T16:01:53.170Z,16.55
2019-05-01T16:04:23.033Z,14.98
2019-05-01T16:06:52.978Z,18.52
2019-05-01T16:09:22.923Z,16.57
2019-05-01T16:11:54.388Z,16.15
2019-05-01T16:14:24.312Z,14.25
2019-05-01T16:16:54.288Z,13.78
2019-05-01T16:19:24.132Z,14.65
2019-05-01T16:21:54.187Z,28.47
2019-05-01T16:24:23.995Z,21.50
2019-05-01T16:26:54.818Z,11.97
2019-05-01T16:29:24.567Z,16.15
2019-05-01T16:31:54.324Z,17.67
2019-05-01T16:34:24.210Z,15.23
2019-05-01T16:36:54.129Z,15.25
2019-05-01T16:39:26.603Z,22.35
2019-05-01T16:41:56.406Z,15.35
2019-05-01T16:44:26.240Z,15.23
2019-05-01T16:46:55.923Z,13.40
2019-05-01T16:49:25.707Z,14.13
2019-05-01T16:51:55.661Z,16.45
2019-05-01T16:54:25.263Z,12.18
2019-05-01T16:56:57.377Z,18.85
2019-05-01T16:59:26.568Z,18.75
2019-05-01T17:01:58.035Z,13.53
2019-05-01T17:04:29.585Z,15.45
2019-05-01T17:07:00.943Z,16.57
2019-05-01T17:12:20.627Z,14.05
2019-05-01T17:14:50.515Z,11.53
2019-05-01T17:17:22.220Z,16.52
2019-05-01T17:19:51.959Z,15.50
2019-05-01T17:22:21.779Z,13.18
2019-05-01T17:24:51.687Z,17.35
2019-05-01T17:27:21.493Z,13.55
2019-05-01T17:29:51.275Z,13.40
2019-05-01T17:32:21.069Z,19.98
2019-05-01T17:34:50.919Z,16.50
2019-05-01T17:37:20.640Z,13.62
2019-05-01T17:39:50.518Z,13.65
2019-05-01T17:42:20.473Z,13.98
2019-05-01T17:44:50.135Z,17.35
2019-05-01T17:47:22.466Z,8.80
2019-05-01T17:49:51.279Z,8.63
2019-05-01T17:52:21.099Z,11.15
2019-05-01T17:54:50.940Z,11.25
2019-05-01T17:57:20.780Z,10.15
2019-05-01T17:59:52.216Z,10.23
2019-05-01T18:05:13.456Z,14.45
2019-05-01T18:07:43.403Z,13.22
2019-05-01T18:10:13.526Z,15.32
2019-05-01T18:12:43.343Z,7.85
2019-05-01T18:15:13.203Z,10.70
2019-05-01T18:17:43.140Z,9.88
2019-05-01T18:20:13.103Z,11.85
2019-05-01T18:22:44.591Z,15.43
2019-05-01T18:25:16.028Z,17.42
2019-05-01T18:27:49.803Z,11.73
2019-05-01T18:30:20.933Z,17.12
2019-05-01T18:32:52.541Z,12.60
2019-05-01T18:35:22.553Z,11.08
2019-05-01T18:37:53.963Z,13.58
2019-05-01T18:40:25.431Z,11.75
2019-05-01T18:42:55.390Z,12.47
2019-05-01T18:45:28.361Z,11.33
2019-05-01T18:47:58.252Z,16.37
2019-05-01T18:50:28.026Z,21.55
2019-05-01T18:52:57.938Z,19.82
2019-05-01T18:55:30.370Z,18.95
2019-05-01T18:57:59.448Z,16.12
2019-05-01T19:00:29.520Z,16.62
2019-05-01T19:02:59.560Z,13.80
2019-05-01T19:05:30.879Z,18.00
2019-05-01T19:08:00.823Z,18.20
2019-05-01T19:10:30.656Z,15.93
2019-05-01T19:13:00.533Z,15.43
2019-05-01T19:15:30.600Z,29.00
2019-05-01T19:18:00.487Z,28.60
2019-05-01T19:20:30.291Z,25.62
2019-05-01T19:23:00.422Z,26.82
2019-05-01T19:25:30.341Z,20.62
2019-05-01T19:28:01.209Z,23.40
2019-05-01T19:30:31.157Z,23.87
2019-05-01T19:33:00.943Z,30.05
2019-05-01T19:35:34.240Z,18.37
2019-05-01T19:38:04.443Z,16.40
2019-05-01T19:40:34.251Z,22.17
2019-05-01T19:43:04.087Z,12.18
2019-05-01T19:45:34.049Z,10.53
2019-05-01T19:48:04.268Z,8.53
2019-05-01T19:50:34.152Z,16.62
2019-05-01T19:53:03.847Z,11.22
2019-05-01T19:55:34.734Z,11.70
2019-05-01T19:58:04.836Z,13.48
2019-05-01T20:00:38.765Z,14.68
2019-05-01T20:03:08.728Z,10.95
2019-05-01T20:05:41.608Z,11.57
2019-05-01T20:08:10.241Z,12.78
2019-05-01T20:10:40.179Z,14.18
2019-05-01T20:13:12.290Z,14.20
2019-05-01T20:15:41.413Z,8.73
2019-05-01T20:18:11.292Z,15.10
2019-05-01T20:20:41.387Z,11.45
2019-05-01T20:23:11.211Z,16.95
2019-05-01T20:25:41.054Z,9.23
2019-05-01T20:28:10.810Z,19.65
2019-05-01T20:30:40.603Z,13.85
2019-05-01T20:33:10.295Z,11.73
2019-05-01T20:35:39.993Z,16.15
2019-05-01T20:38:09.790Z,10.00
2019-05-01T20:40:39.733Z,9.45
2019-05-01T20:43:09.670Z,9.85
2019-05-01T20:45:39.653Z,16.32
2019-05-01T20:48:09.455Z,14.23
2019-05-01T20:50:40.438Z,14.83
2019-05-01T20:53:10.188Z,15.50
2019-05-01T20:55:40.956Z,13.48
2019-05-01T20:58:12.375Z,14.35
2019-05-01T21:00:42.756Z,15.15
2019-05-01T21:03:14.201Z,10.65
2019-05-01T21:05:45.946Z,9.03
2019-05-01T21:08:17.404Z,14.83
2019-05-01T21:10:50.700Z,12.23
2019-05-01T21:13:23.260Z,13.78
2019-05-01T21:15:56.293Z,12.37
2019-05-01T21:18:25.907Z,10.53
2019-05-01T21:20:55.558Z,11.85
2019-05-01T21:23:25.367Z,10.32
2019-05-01T21:25:55.234Z,9.33
2019-05-01T21:28:25.158Z,6.87
2019-05-01T21:30:54.998Z,10.15
2019-05-01T21:33:24.742Z,7.75
2019-05-01T21:35:59.528Z,7.62
2019-05-01T21:38:27.030Z,11.35
2019-05-01T21:40:56.789Z,7.42
2019-05-01T21:43:27.875Z,11.28
2019-05-01T21:45:58.159Z,8.63
2019-05-01T21:48:28.000Z,10.60
2019-05-01T21:50:58.034Z,7.58
2019-05-01T21:53:29.241Z,8.30
2019-05-01T21:56:02.153Z,12.53
2019-05-01T21:58:33.268Z,8.00
2019-05-01T22:01:01.991Z,10.83
2019-05-01T22:03:31.917Z,12.10
2019-05-01T22:06:01.770Z,10.53
2019-05-01T22:08:34.489Z,11.63
2019-05-01T22:11:03.685Z,12.28
2019-05-01T22:13:33.576Z,13.08
2019-05-01T22:16:05.054Z,8.68
2019-05-01T22:18:36.539Z,11.63
2019-05-01T22:21:08.095Z,8.95
2019-05-01T22:23:39.099Z,7.03
2019-05-01T22:26:09.825Z,10.88
2019-05-01T22:28:41.328Z,8.43
2019-05-01T22:31:12.746Z,12.10
2019-05-01T22:33:44.143Z,10.00
2019-05-01T22:36:14.654Z,12.58
2019-05-01T22:38:46.652Z,7.65
2019-05-01T22:41:16.172Z,10.72
2019-05-01T22:43:46.051Z,12.28
2019-05-01T22:46:17.667Z,11.28
2019-05-01T22:48:47.436Z,15.38
2019-05-01T22:51:18.882Z,11.70
2019-05-01T22:53:50.303Z,10.78
2019-05-01T22:56:20.180Z,11.12
2019-05-01T22:58:49.655Z,10.32
2019-05-01T23:01:19.543Z,9.78
2019-05-01T23:03:50.985Z,12.40
2019-05-01T23:06:20.963Z,9.73
2019-05-01T23:08:50.598Z,9.20
2019-05-01T23:11:21.178Z,11.03
2019-05-01T23:13:51.091Z,12.37
2019-05-01T23:16:22.469Z,10.10
2019-05-01T23:18:53.224Z,11.05
2019-05-01T23:21:23.140Z,12.23
2019-05-01T23:23:56.823Z,10.80
2019-05-01T23:26:24.544Z,8.05
2019-05-01T23:28:54.332Z,7.47
2019-05-01T23:31:24.391Z,9.45
2019-05-01T23:33:54.202Z,16.25
2019-05-01T23:36:24.126Z,10.68
2019-05-01T23:38:53.921Z,9.35
2019-05-01T23:41:44.761Z,9.85
2019-05-01T23:43:58.097Z,9.20
2019-05-01T23:46:26.704Z,13.70
2019-05-01T23:48:56.414Z,8.68
2019-05-01T23:51:28.634Z,7.17
2019-05-01T23:53:57.396Z,9.83
2019-05-01T23:56:31.177Z,8.83
2019-05-01T23:58:58.782Z,11.20
